createdAt,value
2022-11-10T07:07:26.771Z,10.67
2022-11-10T07:10:22.856Z,15.27
2022-11-10T07:13:18.406Z,9.43
2022-11-10T07:16:14.759Z,15.00
2022-11-10T07:19:10.215Z,12.73
2022-11-10T07:22:10.616Z,12.63
2022-11-10T07:25:10.377Z,12.23
2022-11-10T07:28:08.356Z,12.30
2022-11-10T07:31:07.046Z,10.50
2022-11-10T07:34:02.673Z,12.13
2022-11-10T07:36:58.035Z,14.57
2022-11-10T07:39:54.092Z,12.13
2022-11-10T07:42:52.054Z,12.73
2022-11-10T07:45:47.544Z,15.70
2022-11-10T07:48:42.704Z,13.30
2022-11-10T07:51:38.157Z,10.80
2022-11-10T07:54:33.172Z,12.80
2022-11-10T07:57:28.571Z,12.13
2022-11-10T08:00:26.833Z,9.77
2022-11-10T08:03:24.984Z,13.97
2022-11-10T08:06:20.338Z,11.77
2022-11-10T08:09:15.975Z,11.50
2022-11-10T08:12:11.508Z,8.10
2022-11-10T08:15:08.020Z,10.03
2022-11-10T08:18:08.795Z,8.50
2022-11-10T08:21:05.239Z,12.13
2022-11-10T08:24:00.772Z,12.03
2022-11-10T08:26:56.390Z,10.90
2022-11-10T08:29:51.530Z,9.40
2022-11-10T08:32:47.109Z,8.97
2022-11-10T08:35:47.293Z,11.30
2022-11-10T08:38:42.769Z,7.63
2022-11-10T08:41:37.940Z,7.13
2022-11-10T08:44:33.671Z,9.20
2022-11-10T08:47:29.121Z,12.40
2022-11-10T08:50:24.898Z,9.67
2022-11-10T08:53:26.015Z,10.57
2022-11-10T08:56:21.890Z,8.33
2022-11-10T08:59:17.143Z,17.50
2022-11-10T09:02:13.888Z,6.27
2022-11-10T09:05:10.797Z,8.40
2022-11-10T09:08:07.520Z,6.70
2022-11-10T09:11:06.454Z,7.37
2022-11-10T09:14:02.167Z,7.57
2022-11-10T09:16:57.871Z,8.90
2022-11-10T09:19:53.873Z,10.20
2022-11-10T09:22:48.926Z,11.20
2022-11-10T09:25:45.325Z,7.87
2022-11-10T09:28:43.336Z,8.03
2022-11-10T09:31:39.236Z,8.47
2022-11-10T09:34:34.721Z,5.70
2022-11-10T09:37:31.081Z,5.10
2022-11-10T09:40:31.679Z,7.60
2022-11-10T09:43:36.410Z,6.67
2022-11-10T09:49:39.964Z,8.70
2022-11-10T09:52:39.767Z,6.73
2022-11-10T09:55:45.636Z,4.77
2022-11-10T09:58:44.889Z,6.93
2022-11-10T10:01:51.620Z,7.43
2022-11-10T10:05:33.199Z,5.37
2022-11-10T10:08:44.331Z,9.30
2022-11-10T10:11:57.150Z,9.07
2022-11-10T10:15:15.882Z,5.40
2022-11-10T10:18:28.810Z,8.57
2022-11-10T10:21:43.120Z,8.70
2022-11-10T10:27:35.181Z,5.53
2022-11-10T10:30:30.518Z,8.40
2022-11-10T10:33:28.611Z,5.67
2022-11-10T10:36:28.061Z,4.20
2022-11-10T10:39:31.536Z,5.28
2022-11-10T10:42:35.391Z,5.85
2022-11-10T10:45:33.030Z,4.50
2022-11-10T10:48:33.601Z,3.72
2022-11-10T10:51:34.162Z,5.63
2022-11-10T10:54:34.840Z,5.57
2022-11-10T10:57:32.512Z,5.70
2022-11-10T11:00:29.692Z,3.90
2022-11-10T11:03:41.430Z,4.90
2022-11-10T11:06:38.345Z,3.63
2022-11-10T11:09:43.214Z,3.85
2022-11-10T11:12:38.856Z,4.28
2022-11-10T11:15:34.571Z,3.95
2022-11-10T11:18:35.251Z,3.67
2022-11-10T11:21:37.511Z,6.78
2022-11-10T11:24:43.011Z,4.40
2022-11-10T11:27:50.331Z,1.88
2022-11-10T11:31:02.682Z,6.15
2022-11-10T11:34:07.400Z,6.63
2022-11-10T11:37:15.360Z,5.60
2022-11-10T11:40:38.323Z,4.38
2022-11-10T11:44:15.297Z,5.47
2022-11-10T11:47:28.421Z,5.43
2022-11-10T11:50:35.550Z,8.63
2022-11-10T11:53:49.770Z,5.57
2022-11-10T11:56:48.879Z,6.05
2022-11-10T12:00:08.799Z,11.03
2022-11-10T12:03:56.193Z,7.03
2022-11-10T12:07:09.891Z,7.87
2022-11-10T12:10:21.201Z,8.13
2022-11-10T12:13:40.771Z,8.48
2022-11-10T12:16:38.760Z,7.90
2022-11-10T12:19:44.188Z,9.07
2022-11-10T12:22:54.069Z,7.45
2022-11-10T12:26:02.744Z,8.93
2022-11-10T12:29:07.885Z,9.07
2022-11-10T12:32:13.427Z,9.27
2022-11-10T12:35:17.408Z,13.23
2022-11-10T12:38:22.959Z,12.05
2022-11-10T12:41:22.205Z,9.63
2022-11-10T12:44:27.777Z,8.48
2022-11-10T12:47:26.145Z,14.48
2022-11-10T12:50:44.525Z,9.07
2022-11-10T12:53:46.177Z,12.80
2022-11-10T12:56:47.765Z,8.45
2022-11-10T12:59:44.957Z,8.40
2022-11-10T13:02:45.555Z,6.68
2022-11-10T13:05:42.859Z,5.50
2022-11-10T13:08:50.131Z,9.55
2022-11-10T13:11:45.873Z,7.45
2022-11-10T13:14:42.803Z,16.70
2022-11-10T13:17:57.822Z,6.80
2022-11-10T13:20:56.754Z,10.90
2022-11-10T13:24:26.938Z,8.27
2022-11-10T13:27:55.972Z,9.35
2022-11-10T13:30:53.053Z,7.75
2022-11-10T13:34:08.859Z,12.48
2022-11-10T13:37:05.101Z,7.03
2022-11-10T13:40:40.044Z,4.97
2022-11-10T13:43:35.311Z,8.45
2022-11-10T13:46:39.771Z,13.68
2022-11-10T13:49:53.023Z,13.43
2022-11-10T13:53:02.793Z,17.23
2022-11-10T13:56:20.794Z,12.18
2022-11-10T13:59:22.224Z,12.38
2022-11-10T14:02:51.775Z,11.43
2022-11-10T14:06:09.624Z,13.90
2022-11-10T14:09:15.096Z,10.10
2022-11-10T14:12:26.762Z,12.40
2022-11-10T14:15:26.568Z,9.98
2022-11-10T14:18:26.073Z,8.23
2022-11-10T14:21:32.679Z,7.97
2022-11-10T14:24:34.095Z,11.48
2022-11-10T14:27:35.479Z,7.03
2022-11-10T14:30:33.900Z,12.05
2022-11-10T14:33:30.903Z,7.07
2022-11-10T14:36:27.203Z,7.65
2022-11-10T14:39:29.755Z,8.83
2022-11-10T14:42:28.933Z,5.47
2022-11-10T14:45:29.260Z,6.63
2022-11-10T14:48:29.732Z,6.83
2022-11-10T14:51:25.503Z,8.97
2022-11-10T14:54:29.248Z,16.90
2022-11-10T14:57:24.970Z,8.88
2022-11-10T15:00:31.259Z,11.20
2022-11-10T15:03:39.328Z,10.83
2022-11-10T15:06:35.735Z,13.20
2022-11-10T15:09:37.013Z,6.63
2022-11-10T15:12:41.803Z,8.23
2022-11-10T15:15:42.758Z,9.90
2022-11-10T15:18:40.511Z,8.20
2022-11-10T15:21:43.015Z,13.90
2022-11-10T15:24:40.274Z,14.52
2022-11-10T15:27:39.640Z,5.13
2022-11-10T15:30:39.642Z,12.10
2022-11-10T15:33:45.634Z,7.33
2022-11-10T15:36:42.661Z,12.33
2022-11-10T15:39:38.019Z,8.53
2022-11-10T15:42:34.064Z,8.20
2022-11-10T15:45:31.038Z,8.97
2022-11-10T15:48:41.752Z,10.63
2022-11-10T15:51:37.301Z,14.77
2022-11-10T15:54:39.551Z,10.80
2022-11-10T15:57:36.679Z,7.05
2022-11-10T16:00:32.842Z,8.70
2022-11-10T16:03:31.608Z,11.17
2022-11-10T16:06:27.940Z,12.37
2022-11-10T16:09:23.235Z,9.27
2022-11-10T16:12:24.185Z,13.17
2022-11-10T16:15:24.586Z,12.13
2022-11-10T16:18:24.227Z,7.87
2022-11-10T16:21:25.293Z,8.90
2022-11-10T16:24:21.543Z,11.00
2022-11-10T16:27:20.080Z,12.97
2022-11-10T16:30:20.226Z,10.67
2022-11-10T16:33:19.279Z,12.10
2022-11-10T16:36:26.785Z,11.70
2022-11-10T16:39:22.649Z,10.60
2022-11-10T16:42:21.493Z,12.10
2022-11-10T16:45:23.646Z,11.63
2022-11-10T16:48:28.878Z,13.03
2022-11-10T16:51:40.929Z,10.73
2022-11-10T16:54:44.124Z,12.23
2022-11-10T16:57:43.414Z,15.70
2022-11-10T17:00:45.217Z,15.93
2022-11-10T17:03:52.415Z,14.13
2022-11-10T17:06:59.391Z,9.77
2022-11-10T17:09:58.958Z,16.10
2022-11-10T17:12:57.102Z,10.73
2022-11-10T17:16:00.192Z,14.70
2022-11-10T17:18:59.732Z,9.27
2022-11-10T17:21:58.673Z,12.60
2022-11-10T17:24:59.333Z,15.73
2022-11-10T17:27:57.203Z,13.63
2022-11-10T17:30:56.874Z,16.27
2022-11-10T17:33:53.284Z,14.37
2022-11-10T17:36:58.073Z,15.57
2022-11-10T17:39:55.682Z,19.85
2022-11-10T17:42:54.033Z,18.07
2022-11-10T17:45:52.246Z,18.30
2022-11-10T17:48:50.548Z,19.90
2022-11-10T17:51:49.254Z,21.23
2022-11-10T17:54:52.792Z,15.47
2022-11-10T17:57:49.553Z,16.20
2022-11-10T18:00:47.266Z,18.73
2022-11-10T18:03:47.643Z,18.67
2022-11-10T18:06:44.914Z,18.37
2022-11-10T18:09:45.780Z,23.00
2022-11-10T18:12:49.592Z,19.27
2022-11-10T18:15:47.355Z,17.97
2022-11-10T18:18:45.423Z,19.07
2022-11-10T18:21:43.284Z,25.80
2022-11-10T18:24:41.297Z,18.10
2022-11-10T18:27:40.655Z,20.87
2022-11-10T18:30:43.333Z,13.90
2022-11-10T18:33:40.035Z,17.57
2022-11-10T18:36:37.441Z,22.10
2022-11-10T18:39:34.001Z,14.93
2022-11-10T18:42:38.885Z,20.90
2022-11-10T18:45:34.937Z,17.00
2022-11-10T18:48:37.241Z,21.43
2022-11-10T18:51:39.501Z,15.00
2022-11-10T18:54:36.528Z,16.75
2022-11-10T18:57:32.566Z,22.20
2022-11-10T19:00:29.437Z,16.83
2022-11-10T19:03:28.574Z,16.30
2022-11-10T19:06:28.109Z,16.17
2022-11-10T19:09:23.928Z,19.13
2022-11-10T19:12:26.301Z,14.00
2022-11-10T19:15:22.705Z,18.77
2022-11-10T19:18:20.177Z,19.67
2022-11-10T19:21:18.738Z,17.47
2022-11-10T19:24:27.693Z,15.53
2022-11-10T19:27:25.357Z,20.33
2022-11-10T19:30:22.128Z,14.57
2022-11-10T19:33:18.266Z,16.03
2022-11-10T19:36:30.831Z,24.73
2022-11-10T19:42:27.733Z,16.13
2022-11-10T19:45:25.144Z,21.30
2022-11-10T19:48:21.554Z,26.07
2022-11-10T19:51:19.816Z,21.53
2022-11-10T19:54:17.023Z,24.17
2022-11-10T19:57:16.025Z,20.80
2022-11-10T20:00:17.164Z,17.83
2022-11-10T20:03:13.437Z,19.33
2022-11-10T20:06:14.013Z,14.17
2022-11-10T20:09:10.480Z,16.27
2022-11-10T20:12:07.614Z,21.73
2022-11-10T20:15:11.493Z,22.23
2022-11-10T20:18:08.744Z,16.93
2022-11-10T20:21:07.323Z,16.97
2022-11-10T20:24:04.104Z,13.00
2022-11-10T20:27:01.039Z,16.93
2022-11-10T20:30:06.863Z,11.10
2022-11-10T20:33:09.758Z,12.63
2022-11-10T20:36:18.988Z,14.47
2022-11-10T20:39:16.048Z,15.33
2022-11-10T20:42:13.937Z,15.03
2022-11-10T20:45:12.236Z,13.67
2022-11-10T20:48:11.554Z,14.37
2022-11-10T20:51:18.284Z,20.10
2022-11-10T20:54:19.195Z,17.17
2022-11-10T20:57:17.796Z,14.37
2022-11-10T21:00:16.564Z,19.67
2022-11-10T21:03:17.793Z,24.13
2022-11-10T21:06:16.148Z,18.00
2022-11-10T21:09:16.734Z,17.60
2022-11-10T21:12:28.885Z,19.87
2022-11-10T21:15:26.814Z,19.37
